Time;durP1;ratioP1;P1;durP2;ratioP2;P2;SDS_P1;SDS_P2;PMS_P1;PMS_P2;Temp;Humidity;BMP_temperature;BMP_pressure;BME280_temperature;BME280_humidity;BME280_pressure;Samples;Min_cycle;Max_cycle;Signal;HPM_P1;HPM_P2
2022/06/30 00:01:20;;;;;;;;;;;15.30;99.90;;;;;;5081157;28;20277;-80
2022/06/30 00:03:45;;;;;;;;;;;15.30;99.90;;;;;;5080434;28;19916;-80
2022/06/30 00:06:11;;;;;;;;;;;15.30;99.90;;;;;;5080224;28;19909;-79
2022/06/30 00:08:36;;;;;;;;;;;15.10;99.90;;;;;;5082254;28;20015;-80
2022/06/30 00:11:06;;;;;;;;;;;15.20;99.90;;;;;;5080739;28;20347;-79
2022/06/30 00:13:35;;;;;;;;;;;15.10;99.90;;;;;;5079017;28;19909;-79
2022/06/30 00:16:01;;;;;;;;;;;15.10;99.90;;;;;;5080415;28;19909;-79
2022/06/30 00:18:27;;;;;;;;;;;15.10;99.90;;;;;;5081622;28;19909;-79
2022/06/30 00:20:52;;;;;;;;;;;15.00;99.90;;;;;;5080280;28;19951;-79
2022/06/30 00:23:18;;;;;;;;;;;15.00;99.90;;;;;;5078594;28;19916;-79
2022/06/30 00:25:43;;;;;;;;;;;14.90;99.90;;;;;;5080021;28;19912;-79
2022/06/30 00:28:09;;;;;;;;;;;14.90;99.90;;;;;;5080894;28;19923;-79
2022/06/30 00:30:34;;;;;;;;;;;14.90;99.90;;;;;;5079984;28;19927;-79
2022/06/30 00:33:00;;;;;;;;;;;14.80;99.90;;;;;;5077821;28;19908;-79
2022/06/30 00:35:25;;;;;;;;;;;14.80;99.90;;;;;;5077768;28;19988;-79
2022/06/30 00:37:51;;;;;;;;;;;14.80;99.90;;;;;;5079516;28;19957;-79
2022/06/30 00:40:16;;;;;;;;;;;14.80;99.90;;;;;;5079077;28;19924;-79
2022/06/30 00:42:42;;;;;;;;;;;14.90;99.90;;;;;;5074476;28;19912;-79
2022/06/30 00:45:08;;;;;;;;;;;14.90;99.90;;;;;;5074911;28;19931;-79
2022/06/30 00:47:33;;;;;;;;;;;14.90;99.90;;;;;;5076104;28;20007;-79
2022/06/30 00:49:59;;;;;;;;;;;14.90;99.90;;;;;;5075522;28;19923;-79
2022/06/30 00:52:27;;;;;;;;;;;14.80;99.90;;;;;;5074492;28;19915;-79
2022/06/30 00:54:54;;;;;;;;;;;14.90;99.90;;;;;;5074559;28;20006;-79
2022/06/30 00:57:20;;;;;;;;;;;14.80;99.90;;;;;;5076695;28;19913;-79
2022/06/30 00:59:48;;;;;;;;;;;14.80;99.90;;;;;;5075392;28;20062;-79
2022/06/30 01:02:14;;;;;;;;;;;14.70;99.90;;;;;;5073830;28;19909;-79
2022/06/30 01:04:40;;;;;;;;;;;14.70;99.90;;;;;;5074539;28;20058;-79
2022/06/30 01:07:06;;;;;;;;;;;14.70;99.90;;;;;;5075695;28;19974;-79
2022/06/30 01:15:00;;;;;;;;;;;14.50;99.90;;;;;;5074872;28;20368;-79
2022/06/30 01:17:26;;;;;;;;;;;14.50;99.90;;;;;;5076574;28;19944;-79
2022/06/30 01:19:55;;;;;;;;;;;14.40;99.90;;;;;;5076129;28;19913;-79
2022/06/30 01:22:20;;;;;;;;;;;14.40;99.90;;;;;;5075682;28;19915;-79
2022/06/30 01:24:46;;;;;;;;;;;14.30;99.90;;;;;;5074923;28;20369;-79
2022/06/30 01:27:12;;;;;;;;;;;14.30;99.90;;;;;;5075341;28;20031;-79
2022/06/30 01:29:37;;;;;;;;;;;14.30;99.90;;;;;;5076795;28;19913;-79
2022/06/30 01:32:03;;;;;;;;;;;14.30;99.90;;;;;;5075327;28;20305;-79
2022/06/30 01:34:29;;;;;;;;;;;14.20;99.90;;;;;;5073646;28;19916;-79
2022/06/30 01:36:54;;;;;;;;;;;14.10;99.90;;;;;;5075482;28;19909;-79
2022/06/30 01:39:19;;;;;;;;;;;14.20;99.90;;;;;;5074946;28;19932;-79
2022/06/30 01:41:45;;;;;;;;;;;14.20;99.90;;;;;;5072700;28;19912;-79
2022/06/30 01:44:11;;;;;;;;;;;14.20;99.90;;;;;;5072847;28;19927;-79
2022/06/30 01:46:37;;;;;;;;;;;14.10;99.90;;;;;;5074351;28;19915;-79
2022/06/30 01:49:02;;;;;;;;;;;14.10;99.90;;;;;;5075062;28;19924;-79
2022/06/30 01:51:28;;;;;;;;;;;14.00;99.90;;;;;;5074084;28;20385;-79
2022/06/30 01:53:53;;;;;;;;;;;13.90;99.90;;;;;;5073893;28;19915;-79
2022/06/30 01:56:19;;;;;;;;;;;13.90;99.90;;;;;;5074394;28;19932;-79
2022/06/30 01:58:44;;;;;;;;;;;13.90;99.90;;;;;;5074975;28;19965;-79
2022/06/30 02:01:10;;;;;;;;;;;13.90;99.90;;;;;;5075110;28;20372;-79
2022/06/30 02:03:35;;;;;;;;;;;13.90;99.90;;;;;;5073874;28;19908;-79
2022/06/30 02:06:01;;;;;;;;;;;13.90;99.90;;;;;;5075028;28;20277;-79
2022/06/30 02:08:26;;;;;;;;;;;13.90;99.90;;;;;;5075333;28;19909;-79
2022/06/30 02:10:51;;;;;;;;;;;13.90;99.90;;;;;;5074348;28;19973;-79
2022/06/30 02:13:17;;;;;;;;;;;13.90;99.90;;;;;;5074018;28;19916;-79
2022/06/30 02:15:42;;;;;;;;;;;13.80;99.90;;;;;;5074937;28;19975;-79
2022/06/30 02:18:08;;;;;;;;;;;13.70;99.90;;;;;;5073395;28;19908;-79
2022/06/30 02:20:34;;;;;;;;;;;13.70;99.90;;;;;;5070841;28;20278;-79
2022/06/30 02:23:02;;;;;;;;;;;13.70;99.90;;;;;;5073686;28;19970;-79
2022/06/30 02:25:29;;;;;;;;;;;13.70;99.90;;;;;;5074249;28;20346;-79
2022/06/30 02:27:55;;;;;;;;;;;13.60;99.90;;;;;;5074261;28;19999;-79
2022/06/30 02:30:20;;;;;;;;;;;13.60;99.90;;;;;;5073495;28;20400;-79
2022/06/30 02:32:46;;;;;;;;;;;13.60;99.90;;;;;;5072911;28;19908;-79
2022/06/30 02:35:12;;;;;;;;;;;13.60;99.90;;;;;;5072616;28;20009;-79
2022/06/30 02:37:38;;;;;;;;;;;13.60;99.90;;;;;;5073073;28;19908;-79
2022/06/30 02:40:04;;;;;;;;;;;13.60;99.90;;;;;;5073113;28;20277;-79
2022/06/30 02:42:30;;;;;;;;;;;13.50;99.90;;;;;;5070709;28;19954;-80
2022/06/30 02:44:55;;;;;;;;;;;13.60;99.90;;;;;;5080211;28;19909;-80
2022/06/30 02:47:21;;;;;;;;;;;13.60;99.90;;;;;;5077582;28;19995;-81
2022/06/30 02:49:46;;;;;;;;;;;13.60;99.90;;;;;;5075869;28;19912;-80
2022/06/30 02:52:12;;;;;;;;;;;13.60;99.90;;;;;;5074174;28;19916;-80
2022/06/30 02:54:38;;;;;;;;;;;13.50;99.90;;;;;;5086263;28;19904;-77
2022/06/30 02:57:03;;;;;;;;;;;13.50;99.90;;;;;;5081097;28;19908;-81
2022/06/30 02:59:29;;;;;;;;;;;13.50;99.90;;;;;;5075288;28;19916;-81
2022/06/30 03:01:54;;;;;;;;;;;13.40;99.90;;;;;;5075605;28;19915;-81
2022/06/30 03:04:21;;;;;;;;;;;13.40;99.90;;;;;;5075788;28;20348;-79
2022/06/30 03:06:46;;;;;;;;;;;13.50;99.90;;;;;;5074653;28;20277;-81
2022/06/30 03:09:12;;;;;;;;;;;13.40;99.90;;;;;;5075039;28;19916;-79
2022/06/30 03:11:39;;;;;;;;;;;13.40;99.90;;;;;;5074647;28;19916;-81
2022/06/30 03:14:04;;;;;;;;;;;13.40;99.90;;;;;;5068344;28;20373;-80
2022/06/30 03:16:30;;;;;;;;;;;13.30;99.90;;;;;;5074663;28;19966;-79
2022/06/30 03:18:55;;;;;;;;;;;13.30;99.90;;;;;;5074841;28;19909;-81
2022/06/30 03:21:21;;;;;;;;;;;13.40;99.90;;;;;;5075796;28;19908;-81
2022/06/30 03:23:46;;;;;;;;;;;13.40;99.90;;;;;;5075431;28;20392;-80
2022/06/30 03:26:12;;;;;;;;;;;13.30;99.90;;;;;;5076045;28;19924;-81
2022/06/30 03:28:38;;;;;;;;;;;13.20;99.90;;;;;;5076345;28;19950;-81
2022/06/30 03:31:03;;;;;;;;;;;13.20;99.90;;;;;;5075643;28;19954;-81
2022/06/30 03:33:29;;;;;;;;;;;13.20;99.90;;;;;;5074214;28;19915;-78
2022/06/30 03:35:54;;;;;;;;;;;13.30;99.90;;;;;;5076329;28;19962;-81
2022/06/30 03:38:20;;;;;;;;;;;13.20;99.90;;;;;;5076240;28;19914;-80
2022/06/30 03:40:45;;;;;;;;;;;13.20;99.90;;;;;;5074920;28;20280;-81
2022/06/30 03:43:10;;;;;;;;;;;13.30;99.90;;;;;;5074176;28;19908;-81
2022/06/30 03:45:36;;;;;;;;;;;13.40;99.90;;;;;;5074566;28;19963;-81
2022/06/30 03:48:02;;;;;;;;;;;13.40;99.90;;;;;;5074616;28;19913;-81
2022/06/30 03:50:28;;;;;;;;;;;13.30;99.90;;;;;;5075395;28;19919;-81
2022/06/30 03:52:54;;;;;;;;;;;13.30;99.90;;;;;;5074102;28;20007;-81
2022/06/30 03:55:19;;;;;;;;;;;13.30;99.90;;;;;;5074138;28;19959;-80
2022/06/30 03:57:45;;;;;;;;;;;13.30;99.90;;;;;;5074845;28;20006;-80
2022/06/30 04:00:11;;;;;;;;;;;13.30;99.90;;;;;;5075277;28;20116;-80
2022/06/30 04:02:36;;;;;;;;;;;13.40;99.90;;;;;;5075623;28;19915;-81
2022/06/30 04:05:03;;;;;;;;;;;13.50;99.90;;;;;;5073723;28;19913;-80
2022/06/30 04:07:28;;;;;;;;;;;13.60;99.90;;;;;;5075051;28;19915;-81
2022/06/30 04:09:54;;;;;;;;;;;13.70;99.90;;;;;;5076066;28;19913;-81
2022/06/30 04:12:19;;;;;;;;;;;13.80;99.90;;;;;;5071800;28;20361;-78
2022/06/30 04:14:45;;;;;;;;;;;13.80;99.90;;;;;;5071992;28;20034;-80
2022/06/30 04:17:10;;;;;;;;;;;13.90;99.90;;;;;;5075707;28;19992;-81
2022/06/30 04:19:37;;;;;;;;;;;14.00;99.90;;;;;;5077529;28;19923;-80
2022/06/30 04:22:03;;;;;;;;;;;14.20;99.90;;;;;;5075595;28;20007;-81
2022/06/30 04:24:28;;;;;;;;;;;14.20;99.90;;;;;;5079023;28;19951;-80
2022/06/30 04:26:54;;;;;;;;;;;14.30;99.90;;;;;;5079141;28;20357;-80
2022/06/30 04:29:19;;;;;;;;;;;14.40;99.90;;;;;;5077361;28;19916;-80
2022/06/30 04:34:29;;;;;;;;;;;14.50;99.90;;;;;;5078826;28;20276;-80
2022/06/30 04:36:54;;;;;;;;;;;14.50;99.90;;;;;;5078941;28;19909;-80
2022/06/30 04:39:21;;;;;;;;;;;14.60;99.90;;;;;;5079110;28;19909;-78
2022/06/30 04:41:47;;;;;;;;;;;14.70;99.90;;;;;;5076916;28;19950;-81
2022/06/30 04:44:13;;;;;;;;;;;14.70;99.90;;;;;;5077290;28;19908;-80
2022/06/30 04:46:38;;;;;;;;;;;14.80;99.90;;;;;;5078304;28;20001;-79
2022/06/30 04:49:04;;;;;;;;;;;14.90;99.90;;;;;;5078770;28;19913;-81
2022/06/30 04:51:29;;;;;;;;;;;15.00;99.90;;;;;;5076365;28;19931;-80
2022/06/30 04:53:55;;;;;;;;;;;15.10;99.90;;;;;;5076288;28;19954;-80
2022/06/30 04:56:20;;;;;;;;;;;15.10;99.90;;;;;;5078088;28;19974;-81
2022/06/30 04:58:46;;;;;;;;;;;15.20;99.90;;;;;;5078333;28;19915;-81
2022/06/30 05:01:12;;;;;;;;;;;15.40;99.90;;;;;;5078098;28;20333;-81
2022/06/30 05:03:37;;;;;;;;;;;15.50;99.90;;;;;;5077408;28;19909;-81
2022/06/30 05:06:03;;;;;;;;;;;15.60;99.90;;;;;;5077235;28;19948;-78
2022/06/30 05:08:29;;;;;;;;;;;15.60;99.90;;;;;;5078392;28;19930;-81
2022/06/30 05:10:54;;;;;;;;;;;15.70;99.90;;;;;;5076442;28;19909;-81
2022/06/30 05:13:20;;;;;;;;;;;15.80;99.90;;;;;;5073877;28;20377;-81
2022/06/30 05:15:46;;;;;;;;;;;16.00;99.90;;;;;;5077090;28;19908;-80
2022/06/30 05:18:12;;;;;;;;;;;16.10;99.90;;;;;;5076516;28;19916;-80
2022/06/30 05:20:37;;;;;;;;;;;16.20;99.90;;;;;;5076359;28;19954;-79
2022/06/30 05:23:03;;;;;;;;;;;16.30;99.90;;;;;;5075546;28;19927;-81
2022/06/30 05:28:13;;;;;;;;;;;16.50;99.90;;;;;;5073549;28;20434;-81
2022/06/30 05:30:39;;;;;;;;;;;16.50;99.90;;;;;;5075545;28;19912;-81
2022/06/30 05:33:05;;;;;;;;;;;16.70;99.90;;;;;;5076107;28;19913;-77
2022/06/30 05:35:30;;;;;;;;;;;17.00;99.90;;;;;;5075783;28;20008;-81
2022/06/30 05:37:56;;;;;;;;;;;17.10;99.90;;;;;;5077738;28;19913;-80
2022/06/30 05:40:21;;;;;;;;;;;17.20;99.90;;;;;;5077038;28;19916;-79
2022/06/30 05:42:47;;;;;;;;;;;17.20;99.90;;;;;;5071569;28;19909;-81
2022/06/30 05:45:12;;;;;;;;;;;17.50;99.90;;;;;;5076368;28;19999;-81
2022/06/30 05:47:47;;;;;;;;;;;17.50;99.90;;;;;;5077325;28;19909;-81
2022/06/30 05:50:14;;;;;;;;;;;17.70;99.90;;;;;;5076055;28;19913;-81
2022/06/30 05:52:40;;;;;;;;;;;17.90;99.90;;;;;;5075395;28;19978;-81
2022/06/30 05:55:06;;;;;;;;;;;18.50;99.90;;;;;;5076418;28;19912;-79
2022/06/30 05:57:31;;;;;;;;;;;19.80;99.90;;;;;;5075744;28;19923;-81
2022/06/30 05:59:57;;;;;;;;;;;20.50;99.90;;;;;;5076499;28;19908;-81
2022/06/30 06:02:22;;;;;;;;;;;21.40;99.90;;;;;;5078148;28;19912;-81
2022/06/30 06:04:48;;;;;;;;;;;22.20;99.90;;;;;;5075805;28;20276;-78
2022/06/30 06:07:14;;;;;;;;;;;22.50;99.90;;;;;;5077137;28;19916;-81
2022/06/30 06:09:39;;;;;;;;;;;23.00;99.90;;;;;;5077270;28;19912;-81
2022/06/30 06:12:05;;;;;;;;;;;22.80;99.90;;;;;;5075212;28;19909;-81
2022/06/30 06:14:30;;;;;;;;;;;22.60;99.90;;;;;;5071590;28;19916;-79
2022/06/30 06:16:56;;;;;;;;;;;23.00;99.90;;;;;;5075604;28;19916;-81
2022/06/30 06:19:22;;;;;;;;;;;23.50;99.90;;;;;;5073634;28;20388;-81
2022/06/30 06:21:48;;;;;;;;;;;23.60;99.90;;;;;;5074369;28;19908;-81
2022/06/30 06:24:14;;;;;;;;;;;23.90;99.90;;;;;;5074033;28;19916;-82
2022/06/30 06:26:40;;;;;;;;;;;23.60;99.90;;;;;;5076530;28;20289;-82
2022/06/30 06:29:05;;;;;;;;;;;22.20;99.90;;;;;;5076391;28;19935;-81
2022/06/30 06:31:38;;;;;;;;;;;22.00;99.90;;;;;;5076673;28;20400;-80
2022/06/30 06:34:03;;;;;;;;;;;23.20;99.90;;;;;;5076258;28;19912;-81
2022/06/30 06:36:29;;;;;;;;;;;23.80;99.90;;;;;;5074819;28;20395;-81
2022/06/30 06:38:55;;;;;;;;;;;23.40;99.90;;;;;;5075580;28;19908;-79
2022/06/30 06:41:21;;;;;;;;;;;23.80;99.90;;;;;;5074629;28;19965;-82
2022/06/30 06:43:47;;;;;;;;;;;24.70;99.90;;;;;;5073475;28;19909;-82
2022/06/30 06:46:13;;;;;;;;;;;24.40;99.90;;;;;;5075802;28;20282;-81
2022/06/30 06:48:38;;;;;;;;;;;24.60;99.90;;;;;;5075840;28;19909;-81
2022/06/30 06:51:04;;;;;;;;;;;24.60;99.90;;;;;;5075891;28;19943;-81
2022/06/30 06:53:29;;;;;;;;;;;24.70;99.90;;;;;;5075903;28;19908;-81
2022/06/30 06:55:55;;;;;;;;;;;25.10;99.90;;;;;;5076802;28;19908;-82
2022/06/30 06:58:20;;;;;;;;;;;25.50;99.90;;;;;;5072588;28;19912;-82
2022/06/30 07:00:46;;;;;;;;;;;25.70;99.90;;;;;;5078468;28;19999;-81
2022/06/30 07:03:12;;;;;;;;;;;25.60;99.90;;;;;;5069096;28;20195;-81
2022/06/30 07:05:38;;;;;;;;;;;25.80;99.90;;;;;;5081072;28;19909;-79
2022/06/30 07:08:03;;;;;;;;;;;25.70;99.90;;;;;;5075922;28;19908;-80
2022/06/30 07:10:29;;;;;;;;;;;25.80;99.90;;;;;;5067480;28;19935;-80
2022/06/30 07:12:54;;;;;;;;;;;26.10;99.90;;;;;;5068461;28;19913;-80
2022/06/30 07:15:21;;;;;;;;;;;25.70;99.90;;;;;;5073467;28;19908;-80
2022/06/30 07:17:47;;;;;;;;;;;26.40;99.90;;;;;;5070058;28;19908;-80
2022/06/30 07:20:13;;;;;;;;;;;26.50;99.90;;;;;;5074318;28;19977;-80
2022/06/30 07:22:38;;;;;;;;;;;26.60;99.90;;;;;;5075377;28;19912;-81
2022/06/30 07:25:05;;;;;;;;;;;26.30;99.90;;;;;;5070550;28;19955;-80
2022/06/30 07:27:31;;;;;;;;;;;26.70;99.90;;;;;;5069100;28;20015;-80
2022/06/30 07:29:56;;;;;;;;;;;27.10;99.90;;;;;;5078743;28;20391;-80
2022/06/30 07:32:22;;;;;;;;;;;27.50;99.20;;;;;;5073611;28;19913;-81
2022/06/30 07:34:47;;;;;;;;;;;27.80;98.40;;;;;;5073984;28;20042;-80
2022/06/30 07:37:13;;;;;;;;;;;27.40;98.50;;;;;;5072814;28;20281;-80
2022/06/30 07:39:38;;;;;;;;;;;27.90;99.00;;;;;;5074158;28;20243;-80
2022/06/30 07:42:04;;;;;;;;;;;27.50;99.40;;;;;;5073698;28;19915;-80
2022/06/30 07:44:29;;;;;;;;;;;27.60;97.20;;;;;;5071784;28;20258;-80
2022/06/30 07:46:55;;;;;;;;;;;27.30;98.40;;;;;;5073766;28;19908;-80
2022/06/30 07:49:21;;;;;;;;;;;27.60;98.00;;;;;;5072898;28;20384;-81
2022/06/30 07:51:48;;;;;;;;;;;28.40;98.40;;;;;;5074525;28;19908;-81
2022/06/30 07:54:13;;;;;;;;;;;29.20;95.60;;;;;;5077527;28;19995;-81
2022/06/30 07:56:39;;;;;;;;;;;29.00;95.40;;;;;;5079024;28;20026;-81
2022/06/30 07:59:04;;;;;;;;;;;29.60;96.20;;;;;;5079091;28;19930;-81
2022/06/30 08:01:30;;;;;;;;;;;29.60;97.00;;;;;;5075272;28;19908;-80
2022/06/30 08:03:55;;;;;;;;;;;29.80;93.30;;;;;;5084764;28;19908;-80
2022/06/30 08:06:22;;;;;;;;;;;29.40;94.30;;;;;;5077446;28;19908;-81
2022/06/30 08:08:47;;;;;;;;;;;29.00;95.00;;;;;;5076281;28;19909;-81
2022/06/30 08:11:13;;;;;;;;;;;29.20;94.90;;;;;;5075923;28;19909;-81
2022/06/30 08:13:38;;;;;;;;;;;29.10;92.50;;;;;;5064937;28;20173;-81
2022/06/30 08:16:04;;;;;;;;;;;29.10;94.20;;;;;;5083089;28;19915;-81
2022/06/30 08:18:29;;;;;;;;;;;30.10;93.40;;;;;;5076619;28;19912;-81
2022/06/30 08:20:55;;;;;;;;;;;28.90;93.00;;;;;;5078219;28;20338;-79
2022/06/30 08:23:20;;;;;;;;;;;28.90;92.40;;;;;;5077463;28;20007;-80
2022/06/30 08:25:46;;;;;;;;;;;29.30;96.20;;;;;;5077613;28;20281;-80
2022/06/30 08:28:12;;;;;;;;;;;29.60;91.50;;;;;;5074036;28;19909;-80
2022/06/30 08:30:38;;;;;;;;;;;29.30;93.20;;;;;;5077164;28;20357;-80
2022/06/30 08:33:03;;;;;;;;;;;29.70;91.00;;;;;;5075615;28;19915;-80
2022/06/30 08:35:29;;;;;;;;;;;29.90;88.80;;;;;;5076829;28;20392;-80
2022/06/30 08:37:54;;;;;;;;;;;30.20;92.70;;;;;;5077156;28;19962;-80
2022/06/30 08:43:06;;;;;;;;;;;31.50;89.40;;;;;;5065541;28;19931;-81
2022/06/30 08:45:32;;;;;;;;;;;31.90;89.70;;;;;;5079783;28;20361;-80
2022/06/30 08:47:58;;;;;;;;;;;31.70;86.60;;;;;;5074915;28;19923;-80
2022/06/30 08:50:23;;;;;;;;;;;31.70;84.40;;;;;;5076548;28;19913;-80
2022/06/30 08:52:51;;;;;;;;;;;32.10;79.50;;;;;;5076895;28;19909;-80
2022/06/30 08:55:18;;;;;;;;;;;31.20;82.20;;;;;;5075968;28;19996;-80
2022/06/30 08:57:46;;;;;;;;;;;31.80;86.00;;;;;;5076834;28;19952;-81
2022/06/30 09:00:13;;;;;;;;;;;33.30;81.60;;;;;;5076208;28;19912;-80
2022/06/30 09:02:38;;;;;;;;;;;32.30;84.40;;;;;;5075156;28;20389;-80
2022/06/30 09:05:04;;;;;;;;;;;31.40;81.30;;;;;;5074714;28;19909;-79
2022/06/30 09:07:30;;;;;;;;;;;29.60;89.30;;;;;;5075204;28;19912;-79
2022/06/30 09:09:55;;;;;;;;;;;31.30;85.00;;;;;;5076123;28;19912;-80
2022/06/30 09:12:21;;;;;;;;;;;31.70;81.40;;;;;;5072213;28;19944;-80
2022/06/30 09:14:47;;;;;;;;;;;32.30;80.00;;;;;;5073865;28;19908;-80
2022/06/30 09:17:14;;;;;;;;;;;32.90;75.00;;;;;;5074519;28;19915;-80
2022/06/30 09:19:53;;;;;;;;;;;31.60;74.40;;;;;;5074149;28;19908;-80
2022/06/30 09:22:20;;;;;;;;;;;30.50;81.70;;;;;;5073872;28;19908;-80
2022/06/30 09:24:53;;;;;;;;;;;31.50;83.20;;;;;;5075917;28;19916;-80
2022/06/30 09:27:19;;;;;;;;;;;31.30;85.00;;;;;;5072769;28;19917;-80
2022/06/30 09:29:53;;;;;;;;;;;32.10;80.50;;;;;;5075131;28;19920;-80
2022/06/30 09:32:19;;;;;;;;;;;32.40;78.90;;;;;;5077359;28;20432;-80
2022/06/30 09:34:44;;;;;;;;;;;32.00;76.70;;;;;;5073221;28;19963;-79
2022/06/30 09:37:18;;;;;;;;;;;31.60;78.60;;;;;;5074926;28;19919;-79
2022/06/30 09:39:44;;;;;;;;;;;30.20;77.50;;;;;;5081633;28;19972;-81
2022/06/30 09:42:10;;;;;;;;;;;31.30;81.50;;;;;;5075830;28;19912;-80
2022/06/30 09:44:36;;;;;;;;;;;31.30;82.60;;;;;;5073154;28;19952;-80
2022/06/30 09:47:04;;;;;;;;;;;31.50;75.80;;;;;;5077310;28;20293;-80
2022/06/30 09:49:30;;;;;;;;;;;31.50;78.30;;;;;;5076526;28;20405;-80
2022/06/30 09:51:55;;;;;;;;;;;32.10;80.50;;;;;;5074980;28;20042;-80
2022/06/30 09:54:21;;;;;;;;;;;32.70;79.30;;;;;;5076122;28;19916;-80
2022/06/30 09:57:00;;;;;;;;;;;32.20;79.80;;;;;;5076048;28;20007;-80
2022/06/30 09:59:26;;;;;;;;;;;33.10;78.40;;;;;;5077366;28;19915;-81
2022/06/30 10:01:52;;;;;;;;;;;32.80;75.30;;;;;;5073867;28;19909;-80
2022/06/30 10:04:18;;;;;;;;;;;32.70;78.30;;;;;;5077378;28;19908;-80
2022/06/30 10:06:44;;;;;;;;;;;31.40;75.00;;;;;;5077138;28;20289;-79
2022/06/30 10:09:12;;;;;;;;;;;30.30;78.60;;;;;;5076504;28;19912;-80
2022/06/30 10:11:38;;;;;;;;;;;29.80;86.10;;;;;;5073866;28;19914;-80
2022/06/30 10:14:03;;;;;;;;;;;31.40;82.30;;;;;;5070087;28;20009;-80
2022/06/30 10:16:29;;;;;;;;;;;31.20;73.60;;;;;;5079647;28;19912;-80
2022/06/30 10:18:55;;;;;;;;;;;32.10;80.20;;;;;;5077986;28;20435;-80
2022/06/30 10:21:21;;;;;;;;;;;33.10;76.70;;;;;;5077732;28;19915;-81
2022/06/30 10:23:47;;;;;;;;;;;33.30;76.00;;;;;;5078950;28;20356;-80
2022/06/30 10:27:11;;;;;;;;;;;32.00;76.40;;;;;;5078943;28;19920;-80
2022/06/30 10:28:58;;;;;;;;;;;32.20;78.30;;;;;;5086758;28;19922;-81
2022/06/30 10:31:34;;;;;;;;;;;33.00;82.90;;;;;;5082439;28;19908;-81
2022/06/30 10:34:14;;;;;;;;;;;33.20;73.40;;;;;;5077812;28;19908;-81
2022/06/30 10:36:59;;;;;;;;;;;32.90;76.70;;;;;;5065649;28;19915;-81
2022/06/30 10:39:36;;;;;;;;;;;32.30;74.20;;;;;;5078442;28;19915;-81
2022/06/30 10:42:02;;;;;;;;;;;32.90;79.40;;;;;;5079385;28;19969;-81
2022/06/30 10:44:29;;;;;;;;;;;33.70;72.50;;;;;;5083440;28;19908;-81
2022/06/30 10:46:57;;;;;;;;;;;33.10;71.70;;;;;;5080758;28;20400;-81
2022/06/30 10:49:24;;;;;;;;;;;32.90;78.60;;;;;;5080722;28;19917;-81
2022/06/30 10:51:50;;;;;;;;;;;33.20;79.00;;;;;;5080784;28;19980;-81
2022/06/30 10:54:33;;;;;;;;;;;32.80;72.60;;;;;;5080945;28;20007;-81
2022/06/30 10:56:59;;;;;;;;;;;32.40;73.60;;;;;;5079777;28;20381;-80
2022/06/30 10:59:39;;;;;;;;;;;32.70;74.20;;;;;;5081916;28;19956;-82
2022/06/30 11:02:08;;;;;;;;;;;33.20;75.70;;;;;;5074964;28;19939;-81
2022/06/30 11:04:34;;;;;;;;;;;33.70;73.60;;;;;;5081300;28;19909;-81
2022/06/30 11:07:01;;;;;;;;;;;33.00;70.60;;;;;;5082027;28;19909;-79
2022/06/30 11:09:47;;;;;;;;;;;31.80;70.30;;;;;;5080893;28;19979;-81
2022/06/30 11:12:17;;;;;;;;;;;32.60;76.00;;;;;;5062369;28;19912;-80
2022/06/30 11:14:48;;;;;;;;;;;33.20;72.20;;;;;;5074680;28;19920;-80
2022/06/30 11:17:14;;;;;;;;;;;33.00;71.00;;;;;;5088445;28;19912;-81
2022/06/30 11:19:39;;;;;;;;;;;33.60;68.90;;;;;;5079173;28;19908;-80
2022/06/30 11:22:05;;;;;;;;;;;32.20;77.00;;;;;;5081972;28;19940;-82
2022/06/30 11:24:32;;;;;;;;;;;32.80;74.80;;;;;;5078792;28;20352;-80
2022/06/30 11:29:44;;;;;;;;;;;33.60;74.10;;;;;;5080374;28;19970;-80
2022/06/30 11:32:10;;;;;;;;;;;33.50;70.60;;;;;;5081189;28;20272;-81
2022/06/30 11:34:37;;;;;;;;;;;33.40;68.30;;;;;;5080151;28;19963;-80
2022/06/30 11:37:02;;;;;;;;;;;33.50;69.80;;;;;;5080648;28;20116;-80
2022/06/30 11:39:28;;;;;;;;;;;32.60;69.40;;;;;;5081654;28;19916;-80
2022/06/30 11:41:57;;;;;;;;;;;31.60;70.70;;;;;;5080535;28;19970;-80
2022/06/30 11:44:24;;;;;;;;;;;32.60;70.60;;;;;;5078550;28;19918;-80
2022/06/30 11:46:57;;;;;;;;;;;30.50;71.40;;;;;;5083267;28;19939;-80
2022/06/30 11:49:24;;;;;;;;;;;30.70;75.00;;;;;;5079993;28;19913;-80
2022/06/30 11:51:50;;;;;;;;;;;32.00;76.20;;;;;;5079570;28;20336;-81
2022/06/30 11:54:16;;;;;;;;;;;32.30;73.10;;;;;;5078754;28;19908;-81
2022/06/30 11:56:46;;;;;;;;;;;32.90;73.30;;;;;;5079884;28;20047;-81
2022/06/30 11:59:12;;;;;;;;;;;32.70;70.30;;;;;;5080306;28;20345;-81
2022/06/30 12:01:37;;;;;;;;;;;32.70;70.70;;;;;;5074388;28;19915;-81
2022/06/30 12:04:16;;;;;;;;;;;32.60;73.20;;;;;;5079233;28;19912;-80
2022/06/30 12:06:41;;;;;;;;;;;31.40;69.70;;;;;;5073032;28;19918;-81
2022/06/30 12:09:07;;;;;;;;;;;31.20;75.80;;;;;;5077444;28;19913;-80
2022/06/30 12:11:34;;;;;;;;;;;32.40;73.70;;;;;;5074823;28;19984;-81
2022/06/30 12:14:00;;;;;;;;;;;33.30;72.20;;;;;;5076851;28;19908;-80
2022/06/30 12:16:26;;;;;;;;;;;33.20;71.20;;;;;;5074827;28;19909;-81
2022/06/30 12:18:51;;;;;;;;;;;33.30;67.20;;;;;;5079621;28;19909;-81
2022/06/30 12:21:17;;;;;;;;;;;33.20;69.40;;;;;;5078599;28;19908;-80
2022/06/30 12:23:45;;;;;;;;;;;33.50;70.00;;;;;;5078363;28;20361;-81
2022/06/30 12:26:10;;;;;;;;;;;32.80;67.50;;;;;;5079789;28;20350;-81
2022/06/30 12:28:55;;;;;;;;;;;32.10;70.90;;;;;;5076431;28;19908;-80
2022/06/30 12:31:24;;;;;;;;;;;32.70;67.90;;;;;;5068814;28;19996;-81
2022/06/30 12:33:50;;;;;;;;;;;34.80;64.60;;;;;;5074159;28;19940;-81
2022/06/30 12:36:15;;;;;;;;;;;34.30;66.70;;;;;;5073475;28;19909;-80
2022/06/30 12:38:41;;;;;;;;;;;32.00;77.60;;;;;;5072730;28;19913;-81
2022/06/30 12:41:15;;;;;;;;;;;30.60;74.70;;;;;;5076582;28;20366;-81
2022/06/30 12:43:42;;;;;;;;;;;34.90;67.80;;;;;;5077393;28;19915;-80
2022/06/30 12:46:09;;;;;;;;;;;37.10;58.60;;;;;;5076187;28;19948;-80
2022/06/30 12:48:38;;;;;;;;;;;36.60;63.10;;;;;;5075218;28;20007;-81
2022/06/30 12:51:04;;;;;;;;;;;37.10;54.70;;;;;;5077511;28;20007;-80
2022/06/30 12:53:29;;;;;;;;;;;37.20;58.10;;;;;;5074339;28;19909;-79
2022/06/30 12:55:58;;;;;;;;;;;37.40;55.60;;;;;;5076173;28;20365;-80
2022/06/30 12:58:24;;;;;;;;;;;37.80;59.90;;;;;;5075515;28;19962;-80
2022/06/30 13:00:49;;;;;;;;;;;38.30;52.30;;;;;;5076114;28;19908;-80
2022/06/30 13:03:15;;;;;;;;;;;38.30;57.50;;;;;;5076255;28;19958;-80
2022/06/30 13:05:40;;;;;;;;;;;38.40;57.10;;;;;;5076760;28;19952;-80
2022/06/30 13:08:06;;;;;;;;;;;38.50;56.30;;;;;;5076202;28;19908;-81
2022/06/30 13:13:15;;;;;;;;;;;38.50;50.60;;;;;;5073040;28;19930;-81
2022/06/30 13:15:41;;;;;;;;;;;38.10;56.70;;;;;;5076417;28;19908;-80
2022/06/30 13:18:06;;;;;;;;;;;37.70;55.20;;;;;;5076680;28;19912;-80
2022/06/30 13:20:32;;;;;;;;;;;37.30;53.50;;;;;;5077656;28;20140;-82
2022/06/30 13:22:57;;;;;;;;;;;38.30;52.70;;;;;;5077935;28;19920;-82
2022/06/30 13:25:23;;;;;;;;;;;39.00;54.80;;;;;;5080608;28;19981;-83
2022/06/30 13:27:48;;;;;;;;;;;39.70;52.60;;;;;;5074583;28;20320;-82
2022/06/30 13:30:14;;;;;;;;;;;38.70;53.20;;;;;;5091412;28;19912;-82
2022/06/30 13:32:39;;;;;;;;;;;37.50;53.50;;;;;;5078165;28;19918;-82
2022/06/30 13:35:05;;;;;;;;;;;38.30;52.10;;;;;;5077950;28;19947;-83
2022/06/30 13:37:30;;;;;;;;;;;37.70;54.30;;;;;;5076810;28;19957;-81
2022/06/30 13:39:56;;;;;;;;;;;35.70;57.40;;;;;;5076116;28;19933;-81
2022/06/30 13:42:21;;;;;;;;;;;34.00;59.00;;;;;;5076728;28;19909;-81
2022/06/30 13:44:47;;;;;;;;;;;32.20;62.30;;;;;;5078633;28;20389;-81
2022/06/30 13:47:12;;;;;;;;;;;32.10;67.40;;;;;;5076283;28;19920;-81
2022/06/30 13:49:40;;;;;;;;;;;32.20;65.40;;;;;;5074961;28;19960;-81
2022/06/30 13:52:06;;;;;;;;;;;31.90;63.30;;;;;;5075481;28;19975;-80
2022/06/30 13:54:31;;;;;;;;;;;30.90;69.80;;;;;;5074827;28;20363;-79
2022/06/30 13:56:57;;;;;;;;;;;30.10;69.90;;;;;;5074298;28;19931;-79
2022/06/30 13:59:28;;;;;;;;;;;29.50;72.30;;;;;;5075845;28;19916;-79
2022/06/30 14:01:54;;;;;;;;;;;28.90;74.50;;;;;;5072056;28;19916;-80
2022/06/30 14:04:19;;;;;;;;;;;28.90;74.60;;;;;;5074799;28;20289;-81
2022/06/30 14:06:46;;;;;;;;;;;29.10;77.20;;;;;;5077545;28;19963;-80
2022/06/30 14:09:11;;;;;;;;;;;28.90;75.40;;;;;;5075493;28;19971;-81
2022/06/30 14:11:37;;;;;;;;;;;28.70;75.40;;;;;;5078018;28;19915;-80
2022/06/30 14:14:02;;;;;;;;;;;28.70;79.70;;;;;;5070873;28;19912;-80
2022/06/30 14:16:28;;;;;;;;;;;28.60;77.80;;;;;;5079737;28;20364;-80
2022/06/30 14:18:53;;;;;;;;;;;28.30;81.50;;;;;;5075038;28;19916;-80
2022/06/30 14:21:19;;;;;;;;;;;28.10;78.40;;;;;;5075289;28;19912;-80
2022/06/30 14:23:44;;;;;;;;;;;27.90;77.90;;;;;;5077989;28;19916;-80
2022/06/30 14:26:11;;;;;;;;;;;27.80;82.30;;;;;;5077559;28;19967;-80
2022/06/30 14:28:37;;;;;;;;;;;27.60;82.40;;;;;;5075334;28;20335;-80
2022/06/30 14:31:03;;;;;;;;;;;27.30;81.70;;;;;;5077825;28;19966;-79